Latest Coastal Weather Observations for Hogan Island

IDT60701

Issued at 3:02 am EST Thursday 28 May 2020 (issued every 10 minutes, with the page automatically refreshed every 10 minutes)

About coastal observations | Map of coastal stations | Coastal observations for TAS | Marine services | Other Formats
Station Details ID: 200838 Name: HOGAN ISLAND Lat: -39.22 Lon: 146.98 Height: 116.0 m
Data from the previous 72 hours. | See also: Recent months at Hogan Island
Date/Time
EST
Wind Sea
Height
m
Swell Vis
km
Cloud Weather Temp
°C
Press
hPa
Rain since
9am
mm
Dir  Spd
kts
Gust
kts
Height
m
Period
s
Dir
28/03:00am WNW 19 22 - - - - - - - 12.9 1018.2 0.0
28/02:30am WNW 19 21 - - - - - - - 12.9 1018.1 0.0
28/02:00am WNW 17 19 - - - - - - - 13.1 1018.1 0.0
28/01:30am WNW 17 20 - - - - - - - 13.2 1017.9 0.0
28/01:00am WNW 11 13 - - - - - - - 12.9 1018.2 0.0
28/12:30am WNW 12 14 - - - - - - - 13.3 1018.3 0.0
28/12:00am W 10 12 - - - - - - - 13.3 1018.5 0.0
 
Date/Time
EST
Wind Sea
Height
m
Swell Vis
km
Cloud Weather Temp
°C
Press
hPa
Rain since
9am
mm
Dir  Spd
kts
Gust
kts
Height
m
Period
s
Dir
27/11:30pm W 7 9 - - - - - - - 13.3 1018.3 0.0
27/11:00pm NW 8 12 - - - - - - - 13.5 1018.4 0.0
27/10:30pm N 9 11 - - - - - - - 13.9 1018.4 0.0
27/10:00pm NNE 10 11 - - - - - - - 12.7 1018.4 0.0
27/09:30pm NNE 11 12 - - - - - - - 12.7 1018.4 0.0
27/09:00pm N 10 12 - - - - - - - 12.6 1018.8 0.0
27/08:30pm NNE 10 12 - - - - - - - 12.6 1018.6 0.0
27/08:00pm NNE 10 11 - - - - - - - 12.6 1018.5 0.0
27/07:30pm NE 8 9 - - - - - - - 12.6 1018.6 0.0
27/07:00pm ENE 7 9 - - - - - - - 12.3 1018.6 0.0
27/06:30pm NE 8 9 - - - - - - - 12.5 1018.5 0.0
27/06:00pm NE 8 9 - - - - - - - 12.4 1018.7 0.0
27/05:30pm NE 8 9 - - - - - - - 12.2 1018.4 0.0
27/05:00pm NNE 7 8 - - - - - - - 12.3 1018.1 0.0
27/04:30pm NNE 9 11 - - - - - - - 12.6 1018.1 0.0
27/04:00pm N 8 9 - - - - - - - 12.9 1018.2 0.0
27/03:30pm N 9 11 - - - - - - - 13.0 1018.1 0.0
27/03:00pm NE 9 11 - - - - - - - 13.0 1018.1 0.0
27/02:30pm NE 9 11 - - - - - - - 13.7 1018.1 0.0
27/02:00pm NE 8 10 - - - - - - - 14.7 1018.5 0.0
27/01:30pm NE 9 11 - - - - - - - 13.0 1018.7 0.0
27/01:00pm NE 7 8 - - - - - - - 13.4 1019.1 0.0
27/12:30pm NE 8 10 - - - - - - - 14.4 1019.3 0.0
27/12:00pm NNE 8 11 - - - - - - - 14.0 1020.0 0.0
27/11:30am NNE 9 11 - - - - - - - 13.6 1020.3 0.0
27/11:00am NNE 10 11 - - - - - - - 12.7 1020.9 0.0
27/10:30am NE 10 11 - - - - - - - 12.4 1021.3 0.0
27/10:00am ENE 8 10 - - - - - - - 12.9 1021.2 0.0
27/09:30am ENE 11 12 - - - - - - - 13.1 1021.2 0.0
27/09:00am ENE 9 9 - - - - - - - 12.9 1021.3 0.0
27/08:30am NE 9 10 - - - - - - - 12.7 1021.4 0.0
27/08:00am NE 9 11 - - - - - - - 12.6 1021.4 0.0
27/07:30am NE 12 13 - - - - - - - 12.1 1021.2 0.0
27/07:00am NE 13 15 - - - - - - - 12.0 1021.0 0.0
27/06:30am NE 10 11 - - - - - - - 11.6 1020.9 0.0
27/06:00am NE 11 12 - - - - - - - 11.8 1020.7 0.0
27/05:30am NE 13 14 - - - - - - - 12.0 1020.6 0.0
27/05:00am NNE 10 12 - - - - - - - 11.8 1020.9 0.0
27/04:30am NNE 12 14 - - - - - - - 12.0 1021.0 0.0
27/04:00am NNE 15 17 - - - - - - - 12.2 1020.9 0.0
27/03:30am NE 17 19 - - - - - - - 12.5 1020.9 0.0
27/03:00am NE 16 19 - - - - - - - 12.6 1021.2 0.0
27/02:30am NE 20 23 - - - - - - - 12.9 1021.1 0.0
27/02:00am ENE 21 24 - - - - - - - 12.9 1021.4 0.0
27/01:30am NE 17 20 - - - - - - - 12.7 1021.8 0.0
27/01:00am ENE 17 19 - - - - - - - 12.8 1022.2 0.0
27/12:30am ENE 18 21 - - - - - - - 12.7 1022.4 0.0
27/12:00am ENE 18 22 - - - - - - - 12.6 1022.6 0.0
 
Date/Time
EST
Wind Sea
Height
m
Swell Vis
km
Cloud Weather Temp
°C
Press
hPa
Rain since
9am
mm
Dir  Spd
kts
Gust
kts
Height
m
Period
s
Dir
26/11:30pm ENE 18 21 - - - - - - - 12.6 1023.0 0.0
26/11:00pm ENE 19 21 - - - - - - - 12.6 1023.0 0.0
26/10:30pm NE 16 19 - - - - - - - 12.5 1023.4 0.0
26/10:00pm ENE 16 18 - - - - - - - 12.5 1023.7 0.0
26/09:30pm ENE 17 19 - - - - - - - 12.5 1023.6 0.0
26/09:00pm ENE 17 19 - - - - - - - 12.5 1024.0 0.0
26/08:30pm NE 14 16 - - - - - - - 12.3 1024.2 0.0
26/08:00pm NE 15 17 - - - - - - - 12.4 1024.1 0.0
26/07:30pm NE 15 18 - - - - - - - 12.4 1024.1 0.0
26/07:00pm NE 15 18 - - - - - - - 12.5 1024.0 0.0
26/06:30pm NE 17 21 - - - - - - - 12.5 1023.7 0.0
26/06:00pm NE 18 22 - - - - - - - 12.3 1023.3 0.0
26/05:30pm NE 18 21 - - - - - - - 12.5 1023.1 0.0
26/05:00pm NE 19 24 - - - - - - - 12.4 1023.1 0.0
26/04:30pm ENE 22 25 - - - - - - - 12.5 1023.1 0.0
26/04:00pm NE 22 25 - - - - - - - 12.9 1023.1 0.0
26/03:30pm NE 20 23 - - - - - - - 13.3 1023.3 0.0
26/03:00pm NE 19 23 - - - - - - - 13.6 1023.5 0.0
26/02:30pm NE 17 20 - - - - - - - 14.0 1023.8 0.0
26/02:00pm NE 18 21 - - - - - - - 14.2 1023.9 0.0
26/01:30pm ENE 19 22 - - - - - - - 14.1 1024.3 0.0
26/01:00pm ENE 18 22 - - - - - - - 14.3 1024.8 0.0
26/12:30pm NE 18 21 - - - - - - - 13.6 1025.4 0.0
26/12:00pm ENE 19 22 - - - - - - - 14.0 1025.8 0.0
26/11:30am ENE 18 22 - - - - - - - 13.6 1026.3 0.0
26/11:00am NE 18 23 - - - - - - - 13.3 1026.7 0.0
26/10:30am ENE 16 21 - - - - - - - 13.1 1026.9 0.0
26/10:00am NE 16 20 - - - - - - - 13.3 1027.2 0.0
26/09:30am ENE 19 23 - - - - - - - 13.0 1027.1 0.0
26/09:00am ENE 17 19 - - - - - - - 12.5 1027.2 1.6
26/08:30am ENE 16 18 - - - - - - - 11.9 1027.1 1.6
26/08:00am E 18 21 - - - - - - - 11.3 1027.0 1.6
26/07:30am E 14 17 - - - - - - - 10.8 1027.0 1.6
26/07:07am E 21 23 - - - - - - - 11.0 1027.0 1.6
26/07:00am NE 14 21 - - - - - - - 11.1 1026.9 1.4
26/06:30am E 11 13 - - - - - - - 10.5 1027.0 1.4
26/06:00am ENE 14 18 - - - - - - - 11.0 1026.7 1.4
26/05:30am E 16 20 - - - - - - - 11.1 1026.5 1.4
26/05:00am ENE 14 17 - - - - - - - 10.7 1026.3 1.4
26/04:30am E 13 16 - - - - - - - 10.8 1026.3 1.0
26/04:00am ENE 14 18 - - - - - - - 10.3 1026.5 1.0
26/03:30am NE 22 26 - - - - - - - 10.7 1026.2 1.0
26/03:28am NE 23 26 - - - - - - - 10.8 1026.2 1.0
26/03:00am NE 11 16 - - - - - - - 10.6 1026.7 1.0
26/02:30am NNE 17 20 - - - - - - - 10.8 1026.7 0.6
26/02:00am ENE 11 14 - - - - - - - 10.9 1026.9 0.6
26/01:30am N 15 17 - - - - - - - 10.5 1026.9 0.6
26/01:00am E 18 22 - - - - - - - 10.4 1027.0 0.6
26/12:43am ENE 17 19 - - - - - - - 10.5 1027.1 0.0
26/12:30am ESE 20 24 - - - - - - - 10.4 1027.1 0.0
26/12:00am E 17 18 - - - - - - - 10.8 1027.3 0.0
 
Date/Time
EST
Wind Sea
Height
m
Swell Vis
km
Cloud Weather Temp
°C
Press
hPa
Rain since
9am
mm
Dir  Spd
kts
Gust
kts
Height
m
Period
s
Dir
25/11:30pm ESE 21 25 - - - - - - - 10.5 1027.1 0.0
25/11:00pm E 21 27 - - - - - - - 10.6 1027.2 0.0
25/10:30pm ESE 20 23 - - - - - - - 10.4 1027.3 0.0
25/10:00pm E 20 23 - - - - - - - 10.5 1027.6 0.0
25/09:30pm ESE 13 15 - - - - - - - 10.7 1027.9 0.0
25/09:00pm ESE 15 18 - - - - - - - 10.9 1027.8 0.0
25/08:30pm ESE 14 17 - - - - - - - 10.3 1027.6 0.0
25/08:00pm ESE 11 16 - - - - - - - 10.6 1027.4 0.0
25/07:30pm SE 10 11 - - - - - - - 10.2 1027.2 0.0
25/07:00pm ESE 11 13 - - - - - - - 10.7 1027.1 0.0
25/06:30pm ESE 15 18 - - - - - - - 10.6 1026.8 0.0
25/06:00pm ESE 13 16 - - - - - - - 10.4 1026.5 0.0
25/05:30pm E 16 18 - - - - - - - 10.7 1026.0 0.0
25/05:00pm ESE 15 18 - - - - - - - 10.6 1026.1 0.0
25/04:30pm ESE 15 18 - - - - - - - 10.8 1026.0 0.0
25/04:00pm ESE 15 17 - - - - - - - 11.2 1025.9 0.0
25/03:30pm ESE 14 16 - - - - - - - 11.6 1025.9 0.0
25/03:00pm ESE 14 17 - - - - - - - 11.6 1026.0 0.0
25/02:30pm ESE 15 17 - - - - - - - 12.2 1025.8 0.0
25/02:00pm ESE 18 21 - - - - - - - 12.3 1025.6 0.0
25/01:30pm ESE 16 20 - - - - - - - 11.8 1025.6 0.0
25/01:00pm ESE 16 19 - - - - - - - 12.5 1025.8 0.0
25/12:30pm SE 17 21 - - - - - - - 12.1 1026.0 0.0
25/12:00pm SE 15 17 - - - - - - - 13.4 1026.6 0.0
25/11:30am SE 14 17 - - - - - - - 13.4 1027.0 0.0
25/11:00am ESE 14 16 - - - - - - - 12.9 1027.1 0.0
25/10:30am SE 15 17 - - - - - - - 12.2 1027.1 0.0
25/10:00am SE 14 16 - - - - - - - 12.1 1026.9 0.0
25/09:30am SE 13 16 - - - - - - - 11.4 1026.7 0.0
25/09:00am SE 13 17 - - - - - - - 11.8 1026.6 0.0
25/08:30am SE 15 17 - - - - - - - 11.0 1026.3 0.0
25/08:00am SE 15 17 - - - - - - - 10.3 1026.2 0.0
25/07:30am SE 16 20 - - - - - - - 10.6 1026.0 0.0
25/07:00am SE 15 19 - - - - - - - 10.6 1025.8 0.0
25/06:30am SSE 13 18 - - - - - - - 10.4 1025.5 0.0
25/06:00am SE 13 17 - - - - - - - 10.4 1025.2 0.0
25/05:30am SE 15 18 - - - - - - - 11.0 1025.0 0.0
25/05:00am SSE 13 17 - - - - - - - 10.9 1024.9 0.0
25/04:30am SE 13 16 - - - - - - - 10.6 1024.9 0.0
25/04:00am SE 10 13 - - - - - - - 10.5 1024.8 0.0
25/03:30am SE 10 13 - - - - - - - 10.5 1024.9 0.0

Other formats

Comma delimited format used in spreadsheet applications
http://www.bom.gov.au/fwo/IDT60701/IDT60701.94949.axf

JavaScript Object Notation format (JSON) in row-major order
http://www.bom.gov.au/fwo/IDT60701/IDT60701.94949.json

Data quality

Most of these data are generated automatically and are frequently updated. Quality checks on data are not normally performed. It is possible for incorrect values to appear. Refer to information at About Latest Weather Observations and please check the disclaimer before using these data.